Mentone, IN (46539)

5:28 PM EST on January 19, 2017 (GMT -0500)
Birch Rd. Observatory | | Change Station

Elev 827 ft 41.18 °N, 86.08 °W | Updated 4 seconds ago

Mostly Cloudy
Mostly Cloudy
39.8 °F
Feels Like 40 °F
N
1.2
Wind Variable Wind from East
Gusts 3.5 mph

Today
High -- | Low -- °F
--% Chance of Precip.
Yesterday
High -- | Low -- °F
Precip. -- in
Pressure 29.90 in
Visibility 5.0 miles
Clouds Mostly Cloudy 7000 ft
Windchill 40 °F
Dew Point 38 °F
Humidity 92%
Rainfall 0.00 in
Snow Depth Not available.
8:05 AM 5:45 PM
Waning Gibbous, 50% visible
METAR KRCR 192215Z AUTO 09009KT 5SM BR BKN070 05/03 A2990 RMK AO2
Pressure 29.90 in
Visibility 5.0 miles
Clouds Mostly Cloudy 7000 ft
Windchill 40 °F
Dew Point 38 °F
Humidity 92%
Rainfall 0.00 in
Snow Depth Not available.
8:05 AM 5:45 PM
Waning Gibbous, 50% visible
METAR KRCR 192215Z AUTO 09009KT 5SM BR BKN070 05/03 A2990 RMK AO2

Get Your Daily Forecast Email!

Thanks for signing up!

Be on the lookout for a verification email in your inbox.

You'll start receiving the daily forecast at 8 AM.

×

10-Day Weather Forecast

Almanac

Astronomy

Jan. 19, 2017 Rise Set
Actual Time
Civil Twilight
Nautical Twilight
Astronomical Twilight
Moon
Length of Visible Light
Length of Day
Tomorrow will be .
, % of the Moon is Illuminated

Today's Extremes

State Highs State Lows

Community

WunderPhotos

Upload Photos

1,962,540 photos uploaded!

WunderBlog® & News

Nearby

Air Quality

  Air Quality AQ Index Pollutant
Not available.

Snow Depth

Station Depth Elevation

Earthquake Activity

City Distance Mag. Time & Date
Minimum magnitude displayed is 2.5.

Coastal Water Temperatures

Place Temperature

Stations

Nearby Weather Stations

Station Location Temp. Windchill Dew Point Humidity Wind Precip. Elev Updated Type
                   

Watches & Warnings

There are currently no watches in effect.